Time;durP1;ratioP1;P1;durP2;ratioP2;P2;SDS_P1;SDS_P2;PMS_P1;PMS_P2;Temp;Humidity;BMP_temperature;BMP_pressure;BME280_temperature;BME280_humidity;BME280_pressure;Samples;Min_cycle;Max_cycle;Signal;HPM_P1;HPM_P2
2021/03/12 00:01:23;;;;;;;41.45;26.15;;;5.30;99.90;;;;;;5039886;28;20210;-67
2021/03/12 00:03:50;;;;;;;41.80;27.65;;;6.10;99.90;;;;;;5037395;28;20711;-65
2021/03/12 00:06:17;;;;;;;37.47;27.80;;;5.30;99.90;;;;;;5041927;28;20490;-66
2021/03/12 00:08:45;;;;;;;34.15;24.38;;;5.20;99.90;;;;;;5037720;28;20324;-67
2021/03/12 00:11:13;;;;;;;37.95;26.05;;;5.20;99.90;;;;;;5034414;28;20214;-65
2021/03/12 00:13:40;;;;;;;34.42;25.00;;;5.20;99.90;;;;;;5041329;28;20220;-65
2021/03/12 00:16:07;;;;;;;37.42;25.90;;;5.50;99.90;;;;;;5033593;28;20207;-66
2021/03/12 00:18:45;;;;;;;31.02;24.35;;;5.40;99.90;;;;;;5039809;28;20256;-67
2021/03/12 00:21:13;;;;;;;32.10;23.92;;;5.40;99.90;;;;;;5029155;28;20216;-66
2021/03/12 00:23:40;;;;;;;29.10;22.77;;;5.30;99.90;;;;;;5042355;28;20231;-66
2021/03/12 00:26:07;;;;;;;34.58;25.45;;;5.10;99.90;;;;;;5034404;28;20202;-66
2021/03/12 00:28:35;;;;;;;30.42;23.42;;;5.80;99.90;;;;;;5034902;28;20298;-66
2021/03/12 00:31:04;;;;;;;29.10;22.33;;;5.40;99.90;;;;;;5039285;28;20207;-65
2021/03/12 00:33:31;;;;;;;29.95;23.25;;;5.50;99.90;;;;;;5023233;28;20220;-67
2021/03/12 00:35:58;;;;;;;35.67;26.83;;;5.50;99.90;;;;;;5038453;28;20257;-68
2021/03/12 00:38:24;;;;;;;32.90;25.23;;;5.60;99.90;;;;;;5034198;28;20506;-65
2021/03/12 00:40:57;;;;;;;29.52;22.77;;;5.60;99.90;;;;;;5038887;28;20221;-66
2021/03/12 00:43:24;;;;;;;25.83;21.08;;;5.60;99.90;;;;;;5038557;28;20227;-65
2021/03/12 00:45:54;;;;;;;27.95;21.20;;;5.60;99.90;;;;;;5033197;28;20638;-65
2021/03/12 00:48:21;;;;;;;24.27;19.48;;;5.70;99.90;;;;;;5041061;28;20264;-65
2021/03/12 00:50:47;;;;;;;27.77;21.98;;;5.60;99.90;;;;;;5037111;28;20203;-65
2021/03/12 00:53:14;;;;;;;31.70;21.48;;;5.80;99.90;;;;;;5041153;28;20288;-65
2021/03/12 00:55:41;;;;;;;29.70;22.77;;;6.00;99.80;;;;;;5035115;28;20202;-65
2021/03/12 00:58:09;;;;;;;24.75;21.50;;;6.30;99.40;;;;;;5036288;28;20206;-65
2021/03/12 01:00:37;;;;;;;28.88;22.30;;;6.60;98.80;;;;;;5038895;28;20248;-66
2021/03/12 01:03:05;;;;;;;25.00;19.90;;;6.60;98.30;;;;;;5034637;28;21189;-66
2021/03/12 01:05:32;;;;;;;30.25;21.55;;;6.80;98.20;;;;;;5027945;28;20209;-65
2021/03/12 01:07:59;;;;;;;23.75;18.98;;;7.00;97.70;;;;;;5028281;28;20203;-66
2021/03/12 01:10:27;;;;;;;23.75;18.98;;;7.00;97.50;;;;;;5044135;28;20781;-66
2021/03/12 01:12:53;;;;;;;25.13;18.67;;;6.80;97.60;;;;;;5035016;28;20218;-65
2021/03/12 01:15:22;;;;;;;21.25;18.75;;;6.70;97.90;;;;;;5035839;28;21185;-66
2021/03/12 01:17:49;;;;;;;24.00;17.88;;;6.70;97.90;;;;;;5036200;28;20210;-66
2021/03/12 01:20:19;;;;;;;25.13;19.40;;;6.70;97.90;;;;;;5033125;28;20843;-67
2021/03/12 01:22:46;;;;;;;21.10;17.52;;;6.80;97.70;;;;;;5023679;28;20226;-67
2021/03/12 01:25:17;;;;;;;25.02;19.25;;;6.80;97.70;;;;;;5025253;28;20222;-67
2021/03/12 01:27:44;;;;;;;18.77;16.73;;;7.00;97.60;;;;;;5032990;28;20202;-65
2021/03/12 01:30:22;;;;;;;22.33;18.45;;;7.30;96.90;;;;;;5041886;28;21517;-65
2021/03/12 01:32:48;;;;;;;22.20;17.55;;;7.20;96.80;;;;;;5033353;28;20441;-67
2021/03/12 01:35:16;;;;;;;20.98;18.75;;;7.70;97.10;;;;;;5034125;28;20233;-66
2021/03/12 01:37:43;;;;;;;23.48;18.23;;;6.90;97.10;;;;;;5030120;28;20665;-66
2021/03/12 01:40:14;;;;;;;23.40;18.52;;;6.80;97.70;;;;;;5040147;28;20286;-65
2021/03/12 01:42:49;;;;;;;17.73;15.80;;;6.70;98.10;;;;;;5032029;28;20548;-67
2021/03/12 01:45:20;;;;;;;21.75;16.35;;;6.80;97.90;;;;;;5023458;28;20250;-67
2021/03/12 01:47:49;;;;;;;20.85;17.88;;;7.00;97.90;;;;;;5038919;28;20219;-66
2021/03/12 01:50:17;;;;;;;27.55;17.38;;;6.90;97.70;;;;;;5035792;28;20203;-66
2021/03/12 01:52:44;;;;;;;22.33;17.17;;;7.00;97.60;;;;;;5041409;28;20207;-67
2021/03/12 01:55:19;;;;;;;19.27;16.25;;;7.20;97.40;;;;;;5032098;28;20826;-65
2021/03/12 01:57:46;;;;;;;24.25;18.00;;;7.30;97.10;;;;;;5035516;28;20714;-65
2021/03/12 02:00:13;;;;;;;19.90;16.35;;;8.00;97.20;;;;;;5040795;28;20211;-66
2021/03/12 02:02:40;;;;;;;19.63;16.92;;;7.20;97.10;;;;;;5037574;28;20199;-66
2021/03/12 02:05:09;;;;;;;21.73;16.33;;;7.20;97.00;;;;;;5036695;28;20207;-67
2021/03/12 02:07:39;;;;;;;21.02;17.70;;;7.30;97.10;;;;;;5036525;28;20495;-66
2021/03/12 02:10:09;;;;;;;22.42;17.15;;;7.20;97.30;;;;;;5021318;28;21220;-66
2021/03/12 02:13:00;;;;;;;20.90;15.88;;;7.20;97.20;;;;;;5032576;28;20221;-65
2021/03/12 02:15:42;;;;;;;20.88;17.33;;;7.20;97.20;;;;;;5033481;28;20207;-66
2021/03/12 02:18:24;;;;;;;22.73;17.90;;;7.20;97.20;;;;;;5035534;28;20210;-66
2021/03/12 02:21:01;;;;;;;22.73;18.83;;;7.20;97.20;;;;;;5033515;28;20203;-65
2021/03/12 02:23:37;;;;;;;23.25;17.52;;;7.20;97.20;;;;;;5033453;28;20444;-67
2021/03/12 02:26:12;;;;;;;20.45;17.60;;;7.20;97.30;;;;;;5040724;28;20195;-65
2021/03/12 02:28:40;;;;;;;21.67;18.30;;;7.10;97.50;;;;;;5031019;28;20626;-67
2021/03/12 02:31:09;;;;;;;22.20;18.70;;;7.20;97.40;;;;;;5037900;28;20210;-67
2021/03/12 02:33:36;;;;;;;26.63;18.20;;;7.30;97.20;;;;;;5037915;28;20833;-66
2021/03/12 02:36:04;;;;;;;19.65;17.33;;;7.30;97.20;;;;;;5034740;28;20334;-66
2021/03/12 02:38:33;;;;;;;22.58;19.15;;;7.30;97.10;;;;;;5033265;28;20202;-65
2021/03/12 02:41:02;;;;;;;22.35;18.05;;;7.30;97.00;;;;;;5032240;28;20207;-67
2021/03/12 02:43:35;;;;;;;23.90;19.90;;;7.50;96.90;;;;;;5035200;28;20654;-67
2021/03/12 02:46:03;;;;;;;20.77;17.05;;;7.50;96.70;;;;;;5026382;28;20207;-67
2021/03/12 02:48:31;;;;;;;18.70;16.90;;;7.60;96.70;;;;;;5039567;28;20301;-65
2021/03/12 02:50:58;;;;;;;22.85;17.70;;;7.70;96.50;;;;;;5026005;28;20275;-65
2021/03/12 02:53:25;;;;;;;21.50;17.73;;;7.70;96.50;;;;;;5031545;28;20276;-66
2021/03/12 02:55:54;;;;;;;24.63;17.98;;;7.70;96.30;;;;;;5038918;28;21442;-67
2021/03/12 02:58:22;;;;;;;22.05;19.52;;;7.50;96.30;;;;;;5032838;28;20214;-65
2021/03/12 03:00:49;;;;;;;22.63;18.40;;;7.50;96.40;;;;;;5038879;28;20226;-65
2021/03/12 03:03:17;;;;;;;23.30;20.05;;;7.50;96.40;;;;;;5027196;28;20390;-67
2021/03/12 03:05:44;;;;;;;22.38;19.50;;;7.50;96.20;;;;;;5039201;28;20259;-66
2021/03/12 03:08:12;;;;;;;20.60;18.40;;;7.50;96.10;;;;;;5032221;28;20230;-66
2021/03/12 03:10:39;;;;;;;18.30;16.38;;;7.60;95.90;;;;;;5032781;28;20207;-66
2021/03/12 03:13:08;;;;;;;16.75;12.95;;;7.50;95.80;;;;;;5036501;28;20211;-65
2021/03/12 03:15:36;;;;;;;15.55;12.35;;;7.40;96.00;;;;;;5035025;28;20202;-67
2021/03/12 03:18:04;;;;;;;12.68;9.15;;;7.30;96.20;;;;;;5028711;28;20336;-65
2021/03/12 03:20:32;;;;;;;11.95;8.88;;;7.20;96.40;;;;;;5028852;28;20203;-68
2021/03/12 03:23:00;;;;;;;12.18;7.88;;;7.10;96.80;;;;;;5022140;28;20476;-67
2021/03/12 03:25:26;;;;;;;8.25;6.68;;;7.10;96.50;;;;;;5034368;28;20203;-65
2021/03/12 03:27:53;;;;;;;10.90;8.05;;;7.10;96.50;;;;;;5037708;28;20221;-66
2021/03/12 03:30:20;;;;;;;10.70;9.02;;;7.10;96.70;;;;;;5033334;28;20513;-66
2021/03/12 03:32:47;;;;;;;12.10;7.40;;;7.10;96.70;;;;;;5037660;28;20293;-65
2021/03/12 03:35:14;;;;;;;9.30;6.78;;;7.10;96.60;;;;;;5034224;28;20344;-65
2021/03/12 03:37:41;;;;;;;7.60;6.90;;;7.10;96.80;;;;;;5034167;28;20527;-65
2021/03/12 03:40:10;;;;;;;8.20;6.40;;;7.10;96.80;;;;;;5028625;28;20270;-67
2021/03/12 03:42:39;;;;;;;6.70;6.00;;;7.00;97.00;;;;;;5037502;28;20214;-65
2021/03/12 03:45:09;;;;;;;6.97;6.35;;;7.00;97.40;;;;;;5030580;28;20555;-66
2021/03/12 03:47:37;;;;;;;6.85;6.15;;;6.80;98.00;;;;;;5038463;28;20796;-66
2021/03/12 03:50:05;;;;;;;8.95;6.10;;;6.70;98.50;;;;;;5031822;28;20211;-66
2021/03/12 03:52:33;;;;;;;6.60;5.75;;;6.70;98.20;;;;;;5036681;28;20207;-65
2021/03/12 03:55:00;;;;;;;5.90;5.40;;;6.70;98.40;;;;;;5033604;28;20393;-67
2021/03/12 03:57:27;;;;;;;8.05;5.65;;;6.70;98.00;;;;;;5032683;28;21323;-65
2021/03/12 03:59:55;;;;;;;7.20;5.22;;;6.70;98.00;;;;;;5040541;28;20215;-67
2021/03/12 04:02:21;;;;;;;4.70;3.40;;;7.00;98.00;;;;;;5015115;28;20207;-65
2021/03/12 04:04:51;;;;;;;3.60;2.97;;;6.80;97.70;;;;;;5038775;28;20297;-66
2021/03/12 04:07:20;;;;;;;4.50;4.10;;;6.80;97.70;;;;;;5027755;28;21245;-66
2021/03/12 04:09:48;;;;;;;5.72;4.38;;;6.80;97.40;;;;;;5036402;28;20206;-66
2021/03/12 04:12:16;;;;;;;4.53;3.60;;;6.80;97.90;;;;;;5028271;28;20441;-67
2021/03/12 04:14:44;;;;;;;8.50;4.20;;;6.80;97.40;;;;;;5036333;28;20533;-66
2021/03/12 04:17:12;;;;;;;5.30;3.50;;;6.70;97.70;;;;;;5030999;28;20345;-66
2021/03/12 04:19:40;;;;;;;4.15;3.15;;;6.70;97.80;;;;;;5037036;28;20290;-65
2021/03/12 04:22:07;;;;;;;3.88;3.00;;;7.40;97.80;;;;;;5032177;28;20229;-68
2021/03/12 04:24:34;;;;;;;2.55;2.00;;;6.60;98.00;;;;;;5039495;28;20321;-67
2021/03/12 04:27:01;;;;;;;3.28;2.42;;;6.60;97.90;;;;;;5039726;28;20209;-67
2021/03/12 04:29:29;;;;;;;6.70;2.80;;;6.50;97.80;;;;;;5038645;28;20261;-66
2021/03/12 04:31:56;;;;;;;4.00;2.10;;;6.50;98.20;;;;;;5040594;28;20203;-66
2021/03/12 04:34:24;;;;;;;5.50;2.30;;;6.30;98.60;;;;;;5035008;28;20218;-67
2021/03/12 04:36:52;;;;;;;3.25;2.42;;;6.30;98.70;;;;;;5041001;28;20203;-67
2021/03/12 04:39:19;;;;;;;6.55;2.90;;;6.30;98.80;;;;;;5037042;28;21739;-67
2021/03/12 04:41:47;;;;;;;3.20;2.25;;;6.20;98.80;;;;;;5036306;28;20206;-67
2021/03/12 04:44:14;;;;;;;2.60;2.40;;;6.20;99.20;;;;;;5035793;28;20269;-67
2021/03/12 04:46:41;;;;;;;2.47;2.25;;;6.00;99.10;;;;;;5040282;28;20228;-66
2021/03/12 04:49:10;;;;;;;3.42;2.88;;;6.20;98.90;;;;;;5032806;28;20711;-67
2021/03/12 04:51:38;;;;;;;4.35;2.88;;;6.20;98.80;;;;;;5044150;28;20215;-66
2021/03/12 04:54:10;;;;;;;5.65;3.80;;;6.20;99.00;;;;;;5034127;28;20210;-66
2021/03/12 04:56:37;;;;;;;3.58;2.65;;;6.20;98.90;;;;;;5042453;28;20213;-66
2021/03/12 04:59:05;;;;;;;4.43;3.65;;;5.90;98.80;;;;;;5030567;28;21334;-65
2021/03/12 05:01:35;;;;;;;6.65;3.05;;;6.20;98.80;;;;;;5039173;28;20226;-65
2021/03/12 05:04:03;;;;;;;3.75;2.90;;;6.20;99.00;;;;;;5035030;28;20261;-64
2021/03/12 05:06:31;;;;;;;5.97;3.25;;;6.10;98.90;;;;;;5037281;28;20222;-65
2021/03/12 05:08:59;;;;;;;3.78;3.10;;;6.10;98.90;;;;;;5036197;28;20222;-65
2021/03/12 05:11:27;;;;;;;6.13;3.05;;;6.20;98.90;;;;;;5034894;28;20214;-66
2021/03/12 05:13:54;;;;;;;5.53;3.53;;;6.00;99.30;;;;;;5041773;28;20215;-66
2021/03/12 05:16:21;;;;;;;4.13;2.70;;;6.00;99.10;;;;;;5036335;28;20209;-66
2021/03/12 05:18:47;;;;;;;2.80;2.60;;;6.00;98.70;;;;;;5034313;28;20205;-67
2021/03/12 05:21:14;;;;;;;8.20;2.00;;;6.00;98.70;;;;;;5027129;28;20221;-67
2021/03/12 05:23:41;;;;;;;8.95;3.28;;;5.90;98.90;;;;;;5039089;28;20257;-66
2021/03/12 05:26:10;;;;;;;2.90;2.40;;;6.00;98.70;;;;;;5036920;28;20207;-67
2021/03/12 05:28:37;;;;;;;4.88;2.15;;;6.00;98.70;;;;;;5037125;28;20206;-66
2021/03/12 05:31:03;;;;;;;5.18;3.83;;;6.00;98.70;;;;;;5027335;28;20238;-66
2021/03/12 05:33:30;;;;;;;3.38;2.45;;;6.00;98.70;;;;;;5039159;28;20288;-65
2021/03/12 05:35:57;;;;;;;4.07;2.30;;;6.00;98.60;;;;;;5031023;28;20413;-66
2021/03/12 05:38:23;;;;;;;3.95;2.30;;;6.00;98.70;;;;;;5035493;28;20495;-66
2021/03/12 05:40:50;;;;;;;4.55;2.30;;;6.10;98.90;;;;;;5022761;28;20233;-65
2021/03/12 05:43:18;;;;;;;3.35;3.05;;;6.10;99.10;;;;;;5036645;28;20227;-66
2021/03/12 05:45:51;;;;;;;4.45;2.45;;;6.10;98.90;;;;;;5016139;28;20821;-67
2021/03/12 05:48:19;;;;;;;4.47;2.63;;;6.20;99.00;;;;;;5038326;28;20551;-66
2021/03/12 05:50:46;;;;;;;3.90;2.75;;;6.20;98.80;;;;;;5038089;28;20203;-66
2021/03/12 05:53:13;;;;;;;4.53;2.70;;;6.20;98.70;;;;;;5031740;28;20383;-67
2021/03/12 05:55:40;;;;;;;4.50;2.70;;;6.30;98.80;;;;;;5040500;28;20206;-68
2021/03/12 05:58:07;;;;;;;4.15;2.70;;;6.50;98.60;;;;;;5031845;28;20207;-67
2021/03/12 06:00:34;;;;;;;3.35;2.50;;;6.80;98.40;;;;;;5042106;28;20217;-66
2021/03/12 06:03:00;;;;;;;3.25;2.50;;;6.80;97.70;;;;;;5030210;28;20486;-66
2021/03/12 06:05:27;;;;;;;6.15;5.55;;;6.80;97.60;;;;;;5037934;28;20274;-67
2021/03/12 06:07:54;;;;;;;6.60;5.45;;;6.90;97.30;;;;;;5030435;28;20756;-67
2021/03/12 06:10:20;;;;;;;3.80;3.30;;;6.90;97.10;;;;;;5026201;28;20207;-67
2021/03/12 06:12:51;;;;;;;4.22;2.78;;;6.90;97.00;;;;;;5023981;28;20272;-68
2021/03/12 06:15:18;;;;;;;4.43;2.78;;;6.90;97.00;;;;;;5037619;28;20203;-68
2021/03/12 06:17:48;;;;;;;2.72;2.53;;;6.70;97.10;;;;;;5030969;28;20202;-67
2021/03/12 06:20:17;;;;;;;3.63;2.60;;;6.80;96.80;;;;;;5031095;28;20237;-68
2021/03/12 06:22:50;;;;;;;6.82;3.63;;;6.60;97.30;;;;;;5025960;28;21354;-68
2021/03/12 06:25:25;;;;;;;5.75;4.82;;;6.50;97.40;;;;;;5035160;28;20222;-67
2021/03/12 06:27:53;;;;;;;4.38;3.45;;;6.50;97.80;;;;;;5034046;28;21678;-68
2021/03/12 06:30:24;;;;;;;4.07;3.58;;;6.40;98.20;;;;;;5039936;28;20206;-69
2021/03/12 06:32:52;;;;;;;3.92;2.60;;;6.30;98.50;;;;;;5030324;28;20214;-68
2021/03/12 06:35:23;;;;;;;6.80;4.72;;;6.10;99.30;;;;;;5033654;28;20231;-69
2021/03/12 06:37:50;;;;;;;5.93;4.35;;;6.00;99.50;;;;;;5035302;28;21449;-69
2021/03/12 06:40:26;;;;;;;6.03;3.88;;;5.90;99.70;;;;;;5037156;28;20512;-69
2021/03/12 06:42:59;;;;;;;5.05;4.22;;;5.90;99.90;;;;;;5031464;28;20375;-71
2021/03/12 06:45:26;;;;;;;3.58;3.20;;;5.70;99.90;;;;;;5026520;28;20270;-72
2021/03/12 06:47:53;;;;;;;4.40;2.95;;;5.80;99.90;;;;;;5034104;28;20241;-74
2021/03/12 06:50:22;;;;;;;3.25;2.67;;;5.80;99.90;;;;;;5048061;28;20625;-76
2021/03/12 06:52:51;;;;;;;4.57;3.13;;;5.70;99.90;;;;;;5063472;28;20203;-78
2021/03/12 06:55:17;;;;;;;4.50;4.07;;;5.70;99.90;;;;;;5054826;28;20394;-76
2021/03/12 06:57:46;;;;;;;6.97;4.53;;;5.60;99.90;;;;;;5075641;28;20507;-75
2021/03/12 07:00:17;;;;;;;5.25;3.78;;;4.90;99.90;;;;;;5057959;28;20230;-76
2021/03/12 07:02:53;;;;;;;4.68;4.25;;;5.50;99.90;;;;;;5069806;28;20199;-75
2021/03/12 07:05:26;;;;;;;4.05;3.75;;;5.50;99.90;;;;;;5050691;28;20398;-77
2021/03/12 07:07:55;;;;;;;6.50;4.65;;;5.50;99.90;;;;;;5071837;28;20212;-75
2021/03/12 07:10:38;;;;;;;6.72;4.00;;;5.40;99.90;;;;;;5073332;28;20216;-76
2021/03/12 07:13:12;;;;;;;8.10;5.03;;;5.40;99.90;;;;;;5074031;28;20221;-76
2021/03/12 07:15:41;;;;;;;13.68;5.78;;;5.40;99.90;;;;;;5074277;28;20206;-76
2021/03/12 07:18:08;;;;;;;4.05;3.40;;;5.40;99.90;;;;;;5069321;28;20206;-75
2021/03/12 07:20:36;;;;;;;7.03;4.20;;;5.40;99.90;;;;;;5072513;28;20234;-75
2021/03/12 07:23:06;;;;;;;5.22;4.25;;;5.40;99.90;;;;;;5075983;28;20228;-79
2021/03/12 07:25:35;;;;;;;10.35;3.80;;;5.40;99.90;;;;;;5070137;28;20225;-75
2021/03/12 07:28:06;;;;;;;3.67;3.00;;;5.30;99.90;;;;;;5050475;28;20640;-75
2021/03/12 07:30:41;;;;;;;5.00;3.60;;;5.20;99.90;;;;;;5059197;28;20207;-77
2021/03/12 07:33:16;;;;;;;8.02;4.05;;;5.10;99.90;;;;;;5074569;28;20509;-75
2021/03/12 07:35:49;;;;;;;4.63;3.70;;;5.10;99.90;;;;;;5064758;28;20508;-72
2021/03/12 07:38:16;;;;;;;4.70;3.70;;;5.00;99.90;;;;;;5056984;28;20207;-72
2021/03/12 07:40:43;;;;;;;9.85;4.28;;;5.00;99.90;;;;;;5075673;28;20207;-73
2021/03/12 07:43:12;;;;;;;10.57;5.28;;;5.00;99.90;;;;;;5073783;28;20218;-72
2021/03/12 07:45:43;;;;;;;6.45;3.60;;;5.10;99.90;;;;;;5076161;28;20230;-73
2021/03/12 07:48:12;;;;;;;5.22;3.40;;;5.10;99.90;;;;;;5074446;28;20206;-73
2021/03/12 07:50:39;;;;;;;10.18;3.90;;;5.20;99.90;;;;;;5075744;28;20213;-73
2021/03/12 07:53:08;;;;;;;4.15;3.15;;;5.40;99.90;;;;;;5075219;28;20210;-73
2021/03/12 07:55:36;;;;;;;3.00;2.60;;;5.60;99.90;;;;;;5078208;28;20262;-74
2021/03/12 07:58:11;;;;;;;5.32;2.90;;;5.70;99.90;;;;;;5073250;28;20216;-75
2021/03/12 08:00:53;;;;;;;3.45;2.33;;;5.70;99.90;;;;;;5056870;28;20211;-73
2021/03/12 08:03:40;;;;;;;3.88;2.88;;;5.70;99.90;;;;;;5076239;28;20238;-74
2021/03/12 08:06:20;;;;;;;4.10;2.53;;;5.90;99.90;;;;;;5075313;28;20478;-73
2021/03/12 08:08:48;;;;;;;3.15;2.85;;;6.20;99.90;;;;;;5077424;28;20205;-73
2021/03/12 08:11:24;;;;;;;3.38;2.70;;;6.30;99.90;;;;;;5074691;28;20430;-72
2021/03/12 08:14:24;;;;;;;3.80;3.15;;;6.30;99.90;;;;;;5076179;28;20203;-72
2021/03/12 08:16:57;;;;;;;7.82;3.65;;;6.30;99.90;;;;;;5057627;28;20264;-74
2021/03/12 08:19:29;;;;;;;4.00;3.58;;;6.50;99.90;;;;;;5078995;28;20207;-71
2021/03/12 08:21:57;;;;;;;4.50;3.35;;;6.80;99.90;;;;;;5078884;28;20520;-72
2021/03/12 08:24:44;;;;;;;7.95;3.55;;;7.20;99.90;;;;;;5057158;28;20227;-70
2021/03/12 08:27:11;;;;;;;3.90;3.47;;;7.40;98.80;;;;;;5076346;28;20203;-71
2021/03/12 08:29:43;;;;;;;6.55;3.83;;;7.40;98.50;;;;;;5077016;28;20319;-73
2021/03/12 08:32:34;;;;;;;8.10;5.78;;;7.50;98.60;;;;;;5078493;28;20238;-73
2021/03/12 08:35:03;;;;;;;3.15;2.75;;;7.70;97.80;;;;;;5077200;28;20246;-72
2021/03/12 08:37:30;;;;;;;3.95;3.65;;;8.00;98.00;;;;;;5060531;28;20241;-73
2021/03/12 08:40:14;;;;;;;6.05;3.60;;;8.50;96.20;;;;;;5078423;28;20295;-72
2021/03/12 08:42:58;;;;;;;5.35;4.20;;;9.00;95.70;;;;;;5057765;28;20278;-72
2021/03/12 08:45:38;;;;;;;3.10;2.65;;;9.30;95.20;;;;;;5077417;28;20379;-72
2021/03/12 08:48:15;;;;;;;3.33;3.05;;;9.10;95.10;;;;;;5068582;28;20248;-70
2021/03/12 08:51:04;;;;;;;3.85;3.40;;;8.70;95.00;;;;;;5070238;28;20210;-72
2021/03/12 08:53:36;;;;;;;6.35;4.90;;;8.70;95.50;;;;;;5056877;28;20242;-72
2021/03/12 08:56:05;;;;;;;4.40;4.00;;;8.50;95.90;;;;;;5076919;28;20217;-73
2021/03/12 08:58:35;;;;;;;7.43;4.47;;;8.40;95.80;;;;;;5075858;28;20203;-72
2021/03/12 09:01:17;;;;;;;5.00;3.75;;;8.40;96.50;;;;;;5060331;28;20283;-71
2021/03/12 09:03:48;;;;;;;4.40;4.07;;;8.20;96.40;;;;;;5077183;28;20561;-72
2021/03/12 09:06:42;;;;;;;7.45;4.35;;;8.10;97.20;;;;;;5076897;28;20206;-72
2021/03/12 09:09:11;;;;;;;5.95;4.35;;;8.00;97.00;;;;;;5076343;28;20290;-72
2021/03/12 09:11:39;;;;;;;5.50;4.70;;;8.10;97.10;;;;;;5079533;28;20383;-72
2021/03/12 09:14:06;;;;;;;5.65;4.30;;;8.40;96.40;;;;;;5078716;28;20253;-73
2021/03/12 09:16:37;;;;;;;5.38;4.28;;;8.70;95.60;;;;;;5078373;28;20481;-72
2021/03/12 09:19:12;;;;;;;5.45;4.95;;;9.30;95.90;;;;;;5071575;28;20208;-73
2021/03/12 09:21:39;;;;;;;5.78;4.30;;;10.00;94.20;;;;;;5067989;28;20209;-72
2021/03/12 09:24:07;;;;;;;4.22;3.60;;;9.90;93.00;;;;;;5066417;28;20241;-72
2021/03/12 09:26:36;;;;;;;5.65;3.30;;;9.80;93.60;;;;;;5058739;28;20213;-71
2021/03/12 09:29:06;;;;;;;4.13;3.75;;;9.80;93.60;;;;;;5060536;28;20215;-71
2021/03/12 09:31:39;;;;;;;5.63;4.13;;;9.80;92.90;;;;;;5075600;28;20204;-72
2021/03/12 09:34:14;;;;;;;6.57;5.05;;;10.10;93.80;;;;;;5059186;28;20215;-79
2021/03/12 09:36:46;;;;;;;8.00;5.00;;;9.30;96.20;;;;;;5061136;28;20502;-81
2021/03/12 09:39:22;;;;;;;5.78;4.40;;;8.60;97.00;;;;;;5068895;28;20211;-81
2021/03/12 09:42:03;;;;;;;4.03;3.45;;;7.80;98.00;;;;;;5067961;28;20236;-84
2021/03/12 09:44:31;;;;;;;4.38;3.75;;;7.60;99.00;;;;;;5061357;28;20306;-84
2021/03/12 09:47:00;;;;;;;3.70;3.40;;;7.90;98.60;;;;;;5060203;28;20739;-78
2021/03/12 09:49:33;;;;;;;4.40;4.00;;;8.50;97.20;;;;;;5049174;28;20239;-77
2021/03/12 09:52:10;;;;;;;5.30;3.53;;;9.10;97.20;;;;;;5059710;28;20369;-76
2021/03/12 09:54:40;;;;;;;4.78;4.20;;;9.60;95.10;;;;;;5055720;28;20217;-76
2021/03/12 09:57:17;;;;;;;3.95;3.45;;;9.90;93.60;;;;;;5076476;28;20447;-77
2021/03/12 09:59:50;;;;;;;3.63;3.20;;;10.20;94.50;;;;;;5051830;28;20471;-79
2021/03/12 10:02:28;;;;;;;4.43;4.03;;;10.30;94.40;;;;;;5074090;28;20252;-77
2021/03/12 10:04:58;;;;;;;4.72;3.80;;;10.20;92.60;;;;;;5059588;28;20312;-77
2021/03/12 10:07:46;;;;;;;4.72;4.32;;;10.10;93.20;;;;;;5077272;28;20540;-75
2021/03/12 10:10:15;;;;;;;4.60;4.20;;;10.40;93.00;;;;;;5072039;28;20238;-75
2021/03/12 10:12:43;;;;;;;4.07;3.65;;;10.30;91.10;;;;;;5059760;28;20399;-78
2021/03/12 10:15:39;;;;;;;10.55;3.97;;;10.30;91.60;;;;;;5076283;28;20239;-76
2021/03/12 10:18:22;;;;;;;4.80;3.13;;;10.40;89.40;;;;;;5067187;28;20502;-75
2021/03/12 10:21:10;;;;;;;6.30;4.03;;;10.30;90.10;;;;;;5064541;28;20213;-78
2021/03/12 10:23:37;;;;;;;3.20;2.95;;;10.50;90.10;;;;;;5062263;28;20256;-74
2021/03/12 10:26:07;;;;;;;3.30;2.75;;;10.70;87.80;;;;;;5057844;28;20234;-72
2021/03/12 10:28:35;;;;;;;4.70;2.92;;;10.50;87.00;;;;;;5053243;28;20210;-72
2021/03/12 10:31:04;;;;;;;5.55;2.95;;;10.40;85.10;;;;;;5064260;28;20209;-72
2021/03/12 10:33:32;;;;;;;3.95;3.28;;;10.40;86.50;;;;;;5070830;28;20572;-72
2021/03/12 10:36:04;;;;;;;3.45;3.08;;;10.40;84.70;;;;;;5066458;28;20225;-74
2021/03/12 10:38:34;;;;;;;4.10;2.22;;;10.60;85.00;;;;;;5067902;28;20277;-76
2021/03/12 10:41:19;;;;;;;5.57;3.08;;;10.70;84.40;;;;;;5072216;28;20505;-72
2021/03/12 10:44:02;;;;;;;4.95;3.38;;;10.50;83.60;;;;;;5070220;28;20226;-74
2021/03/12 10:46:31;;;;;;;4.00;3.58;;;10.80;83.30;;;;;;5068935;28;20206;-72
2021/03/12 10:48:59;;;;;;;3.78;3.28;;;10.90;83.10;;;;;;5066658;28;20244;-72
2021/03/12 10:51:37;;;;;;;4.40;3.15;;;10.90;83.40;;;;;;5065883;28;20707;-72
2021/03/12 10:54:05;;;;;;;4.10;3.22;;;10.80;82.50;;;;;;5072425;28;20217;-73
2021/03/12 10:56:31;;;;;;;4.22;3.15;;;11.00;82.20;;;;;;5068406;28;20224;-72
2021/03/12 10:59:06;;;;;;;5.30;2.60;;;11.10;81.10;;;;;;5064870;28;20253;-70
2021/03/12 11:01:40;;;;;;;5.07;2.83;;;11.30;80.40;;;;;;5073880;28;20213;-70
2021/03/12 11:04:12;;;;;;;2.75;2.10;;;11.10;79.90;;;;;;5056599;28;20222;-70
2021/03/12 11:06:41;;;;;;;3.72;2.50;;;11.10;78.40;;;;;;5073241;28;20211;-72
2021/03/12 11:09:10;;;;;;;6.18;3.00;;;11.40;78.90;;;;;;5070644;28;20230;-72
2021/03/12 11:11:37;;;;;;;3.00;2.70;;;11.30;76.70;;;;;;5070878;28;20241;-71
2021/03/12 11:14:05;;;;;;;4.00;3.30;;;11.10;77.30;;;;;;5073702;28;20226;-71
2021/03/12 11:16:33;;;;;;;2.83;2.53;;;11.20;77.20;;;;;;5068797;28;20516;-70
2021/03/12 11:19:00;;;;;;;2.72;2.50;;;11.30;75.90;;;;;;5075305;28;20242;-71
2021/03/12 11:21:31;;;;;;;10.38;2.70;;;11.30;76.20;;;;;;5066512;28;20196;-71
2021/03/12 11:23:58;;;;;;;4.72;3.25;;;11.50;76.70;;;;;;5074590;28;20237;-71
2021/03/12 11:26:25;;;;;;;5.15;3.63;;;11.30;75.40;;;;;;5072632;28;20225;-71
2021/03/12 11:28:52;;;;;;;4.47;3.05;;;11.20;77.90;;;;;;5060490;28;20424;-71
2021/03/12 11:31:19;;;;;;;4.57;2.90;;;11.40;77.60;;;;;;5059391;28;20570;-73
2021/03/12 11:33:46;;;;;;;3.63;3.00;;;11.50;76.20;;;;;;5080470;28;20270;-70
2021/03/12 11:36:14;;;;;;;6.45;2.75;;;11.20;76.80;;;;;;5079658;28;20233;-70
2021/03/12 11:38:41;;;;;;;3.05;2.85;;;11.10;77.20;;;;;;5080290;28;20264;-70
2021/03/12 11:41:08;;;;;;;4.65;2.58;;;11.10;76.80;;;;;;5080700;28;20209;-71
2021/03/12 11:43:35;;;;;;;6.97;2.90;;;11.10;77.00;;;;;;5067249;28;20204;-71
2021/03/12 11:46:04;;;;;;;6.53;3.80;;;11.00;77.20;;;;;;5075831;28;20566;-71
2021/03/12 11:48:31;;;;;;;6.57;3.42;;;10.90;78.70;;;;;;5073615;28;20524;-71
2021/03/12 11:50:58;;;;;;;3.50;2.70;;;11.00;77.60;;;;;;5075173;28;20206;-70
2021/03/12 11:53:24;;;;;;;4.35;3.42;;;10.40;76.80;;;;;;5077350;28;20214;-69
2021/03/12 11:55:51;;;;;;;3.28;2.97;;;10.80;78.80;;;;;;5079385;28;20217;-70
2021/03/12 11:58:18;;;;;;;8.95;3.25;;;10.90;77.20;;;;;;5078425;28;20210;-71
2021/03/12 12:00:46;;;;;;;3.65;3.15;;;10.70;78.40;;;;;;5075873;28;20207;-69
2021/03/12 12:03:13;;;;;;;3.92;3.45;;;10.50;79.20;;;;;;5075613;28;20217;-69
2021/03/12 12:05:41;;;;;;;4.53;2.67;;;10.70;79.10;;;;;;5074340;28;20237;-70
2021/03/12 12:08:08;;;;;;;3.45;3.15;;;11.10;77.90;;;;;;5077914;28;20220;-70
2021/03/12 12:10:35;;;;;;;4.70;3.35;;;11.40;76.10;;;;;;5061976;28;20206;-69
2021/03/12 12:13:02;;;;;;;10.77;3.17;;;10.90;74.30;;;;;;5073911;28;20603;-71
2021/03/12 12:15:33;;;;;;;5.55;2.97;;;11.10;76.60;;;;;;5059447;28;20214;-69
2021/03/12 12:18:05;;;;;;;8.30;2.75;;;11.00;76.00;;;;;;5075534;28;20210;-71
2021/03/12 12:20:49;;;;;;;6.40;3.63;;;10.80;75.40;;;;;;5072952;28;20198;-70
2021/03/12 12:23:17;;;;;;;5.85;3.95;;;10.80;76.70;;;;;;5068371;28;20267;-70
2021/03/12 12:25:45;;;;;;;2.97;2.60;;;10.60;75.10;;;;;;5069329;28;20238;-69
2021/03/12 12:28:15;;;;;;;9.77;4.22;;;10.70;75.60;;;;;;5074711;28;20221;-70
2021/03/12 12:30:43;;;;;;;5.18;3.40;;;10.90;76.40;;;;;;5075384;28;20206;-69
2021/03/12 12:33:10;;;;;;;3.00;2.53;;;11.10;75.40;;;;;;5077336;28;20206;-68
2021/03/12 12:35:38;;;;;;;5.22;3.50;;;11.70;76.70;;;;;;5079887;28;20403;-71
2021/03/12 12:38:06;;;;;;;5.57;2.85;;;11.20;75.20;;;;;;5078301;28;20201;-70
2021/03/12 12:40:35;;;;;;;5.38;2.75;;;11.30;74.80;;;;;;5070145;28;20215;-69
2021/03/12 12:43:04;;;;;;;3.63;3.15;;;11.10;73.80;;;;;;5072849;28;20237;-69
2021/03/12 12:45:33;;;;;;;7.70;2.67;;;10.80;74.90;;;;;;5061857;28;20288;-68
2021/03/12 12:48:00;;;;;;;2.72;2.30;;;10.60;75.90;;;;;;5060302;28;20474;-69
2021/03/12 12:50:27;;;;;;;6.97;3.83;;;10.40;76.50;;;;;;5077213;28;20454;-69
2021/03/12 12:52:56;;;;;;;3.00;2.70;;;10.20;77.00;;;;;;5079475;28;20221;-69
2021/03/12 12:55:25;;;;;;;6.95;2.72;;;10.20;77.40;;;;;;5078389;28;20217;-70
2021/03/12 12:57:52;;;;;;;10.60;4.25;;;10.20;78.50;;;;;;5078606;28;20382;-70
2021/03/12 13:00:20;;;;;;;5.57;2.97;;;10.20;77.00;;;;;;5054877;28;20209;-70
2021/03/12 13:02:46;;;;;;;2.80;2.60;;;10.10;78.00;;;;;;5055682;28;20228;-69